Ashaway, Rhode Island
Current Conditions -  °F | °C
As of 3:53 PM on Thursday 18 Dec 2014 (Local Time) from KWST Reporting Station
Few Clouds Few Clouds  
Wind Chill:   Ceiling: Unl
Heat Index:   Visibility: 10mi
Dew Point: -3°   Wind: 9mph
Humidity: 60%   Direction: 300°WNW
Pressure: 29.86"   Gusts: 21mph
Location:  41.43°N, 71.79°W
Report Text: KWST 182053Z AUTO 30008G18KT 10SM FEW033 04/M03 A2986 RMK AO2 SLP113 T00441028 53009
Loading
Personal Weather Stations






























Interactive Weather Map New forecast layout! Learn more

10-Day Weather Forecast

Advertisements
Track Severe Weather on mobile